KNQI/NQI METAR and TAF weather

Enter ICAO airport designator
Station Type Date Time Source
KNQI METAR 2020/09/27 03:56 UTC NOAA

KNQI 270356Z AUTO 15011KT 10SM CLR 27/24 A2984 RMK AO2 SLP101 T02670239 $


Station Type Date Time Source
KNQI Decoded METAR 2020/09/27 03:56 UTC NOAA

KINGSVILLE NAS, TX, United States (KNQI) 27-50N 097-81W 15M
Sep 26, 2020 - 11:56 PM EDT / 2020.09.27 0356 UTC
Wind: from the SSE (150 degrees) at 13 MPH (11 KT):0
Visibility: 10 mile(s):0
Sky conditions: clear
Temperature: 80.1 F (26.7 C)
Dew Point: 75.0 F (23.9 C)
Relative Humidity: 84%
Pressure (altimeter): 29.84 in. Hg (1010 hPa)
ob: KNQI 270356Z AUTO 15011KT 10SM CLR 27/24 A2984 RMK AO2 SLP101 T02670239
cycle: 4

Station Type Date Time Source
KNQI TAF 2020/09/25 23:50 UTC NOAA

TAF KNQI 2523/2623 12012KT 9999 VCSH SCT045 SCT055 QNH2986INS
BECMG 2600/2602 VRB05KT 9999 NSW FEW025 QNH2988INS
FM261100 VRB05KT 9999 VCSH SCT015 SCT025 QNH2990INS
TEMPO 2611/2616 16010KT 9000 -SHRA BKN020
BECMG 2616/2618 14012KT 9999 NSW SCT035 SCT045 QNH2987INS AUTOMATED SENSOR METWATCH 2600 TIL 2717 T22/2611Z T34/2620Z FN20042

Example: see airport list